sensor_id;sensor_type;location;lat;lon;timestamp;pressure;altitude;pressure_sealevel;temperature;humidity
18784;BME280;9520;50.954;6.968;2023-04-30T00:00:04;101601.22;;;18.01;49.27
18784;BME280;9520;50.954;6.968;2023-04-30T00:00:31;101614.66;;;17.99;49.49
18784;BME280;9520;50.954;6.968;2023-04-30T00:00:53;101601.38;;;17.96;49.34
18784;BME280;9520;50.954;6.968;2023-04-30T00:01:15;101611.97;;;17.99;49.43
18784;BME280;9520;50.954;6.968;2023-04-30T00:01:40;101589.03;;;17.92;49.17
18784;BME280;9520;50.954;6.968;2023-04-30T00:02:03;101606.50;;;18.04;49.23
18784;BME280;9520;50.954;6.968;2023-04-30T00:02:26;101610.84;;;18.06;49.17
18784;BME280;9520;50.954;6.968;2023-04-30T00:02:48;101544.47;;;17.66;49.06
18784;BME280;9520;50.954;6.968;2023-04-30T00:03:10;101566.09;;;17.87;49.05
18784;BME280;9520;50.954;6.968;2023-04-30T00:03:34;101609.91;;;18.09;48.96
18784;BME280;9520;50.954;6.968;2023-04-30T00:03:57;101611.72;;;18.07;48.97
18784;BME280;9520;50.954;6.968;2023-04-30T00:04:19;101600.31;;;18.02;49.10
18784;BME280;9520;50.954;6.968;2023-04-30T00:04:41;101608.13;;;18.08;48.83
18784;BME280;9520;50.954;6.968;2023-04-30T00:05:09;101491.94;;;17.39;48.85
18784;BME280;9520;50.954;6.968;2023-04-30T00:05:32;101601.16;;;18.04;48.70
18784;BME280;9520;50.954;6.968;2023-04-30T00:05:54;101602.06;;;18.03;48.72
18784;BME280;9520;50.954;6.968;2023-04-30T00:06:18;101623.31;;;18.06;48.51
18784;BME280;9520;50.954;6.968;2023-04-30T00:06:43;101607.28;;;18.06;48.72
18784;BME280;9520;50.954;6.968;2023-04-30T00:07:06;101543.63;;;17.66;48.71
18784;BME280;9520;50.954;6.968;2023-04-30T00:07:30;101611.97;;;17.99;48.86
18784;BME280;9520;50.954;6.968;2023-04-30T00:07:53;101600.47;;;17.97;48.94
18784;BME280;9520;50.954;6.968;2023-04-30T00:08:15;101573.31;;;17.83;49.13
18784;BME280;9520;50.954;6.968;2023-04-30T00:08:39;101610.94;;;18.03;48.82
18784;BME280;9520;50.954;6.968;2023-04-30T00:09:04;101606.63;;;17.99;48.76
18784;BME280;9520;50.954;6.968;2023-04-30T00:09:26;101610.13;;;18.01;48.71
18784;BME280;9520;50.954;6.968;2023-04-30T00:09:53;101559.41;;;17.72;48.54
18784;BME280;9520;50.954;6.968;2023-04-30T00:10:17;101603.13;;;17.97;48.49
18784;BME280;9520;50.954;6.968;2023-04-30T00:10:42;101604.84;;;18.00;48.36
18784;BME280;9520;50.954;6.968;2023-04-30T00:11:04;101611.00;;;18.02;48.27
18784;BME280;9520;50.954;6.968;2023-04-30T00:11:27;101612.75;;;18.03;48.40
18784;BME280;9520;50.954;6.968;2023-04-30T00:11:48;101611.78;;;18.05;48.20
18784;BME280;9520;50.954;6.968;2023-04-30T00:12:14;101588.13;;;17.93;48.31
18784;BME280;9520;50.954;6.968;2023-04-30T00:12:37;101608.25;;;18.05;48.17
18784;BME280;9520;50.954;6.968;2023-04-30T00:12:59;101610.13;;;18.01;48.21
18784;BME280;9520;50.954;6.968;2023-04-30T00:13:28;101620.88;;;18.00;48.56
18784;BME280;9520;50.954;6.968;2023-04-30T00:13:52;101623.56;;;17.98;48.49
18784;BME280;9520;50.954;6.968;2023-04-30T00:14:14;101604.19;;;17.92;48.16
18784;BME280;9520;50.954;6.968;2023-04-30T00:14:39;101543.03;;;17.55;48.47
18784;BME280;9520;50.954;6.968;2023-04-30T00:15:03;101598.94;;;17.89;48.13
18784;BME280;9520;50.954;6.968;2023-04-30T00:15:28;101609.53;;;17.92;48.11
18784;BME280;9520;50.954;6.968;2023-04-30T00:15:51;101601.59;;;17.90;48.24
18784;BME280;9520;50.954;6.968;2023-04-30T00:16:15;101613.03;;;17.94;48.21
18784;BME280;9520;50.954;6.968;2023-04-30T00:16:39;101611.25;;;17.94;48.50
18784;BME280;9520;50.954;6.968;2023-04-30T00:17:01;101570.06;;;17.74;48.39
18784;BME280;9520;50.954;6.968;2023-04-30T00:17:24;101608.66;;;17.91;48.39
18784;BME280;9520;50.954;6.968;2023-04-30T00:17:48;101579.88;;;17.72;48.38
18784;BME280;9520;50.954;6.968;2023-04-30T00:18:13;101607.72;;;17.92;48.30
18784;BME280;9520;50.954;6.968;2023-04-30T00:18:36;101608.47;;;17.97;48.38
18784;BME280;9520;50.954;6.968;2023-04-30T00:19:00;101619.09;;;17.99;48.47
18784;BME280;9520;50.954;6.968;2023-04-30T00:19:26;101540.50;;;17.50;48.46
18784;BME280;9520;50.954;6.968;2023-04-30T00:19:50;101612.75;;;18.03;48.22
18784;BME280;9520;50.954;6.968;2023-04-30T00:20:44;101609.50;;;17.93;48.20
18784;BME280;9520;50.954;6.968;2023-04-30T00:21:10;101614.69;;;17.98;47.95
18784;BME280;9520;50.954;6.968;2023-04-30T00:21:32;101606.91;;;17.90;47.71
18784;BME280;9520;50.954;6.968;2023-04-30T00:21:55;101612.06;;;17.96;48.09
18784;BME280;9520;50.954;6.968;2023-04-30T00:22:17;101605.75;;;17.99;47.92
18784;BME280;9520;50.954;6.968;2023-04-30T00:22:40;101610.53;;;17.88;48.07
18784;BME280;9520;50.954;6.968;2023-04-30T00:23:02;101607.84;;;17.89;48.07
18784;BME280;9520;50.954;6.968;2023-04-30T00:23:24;101615.06;;;17.86;48.03
18784;BME280;9520;50.954;6.968;2023-04-30T00:23:46;101622.97;;;17.89;47.86
18784;BME280;9520;50.954;6.968;2023-04-30T00:24:09;101564.25;;;17.58;47.67
18784;BME280;9520;50.954;6.968;2023-04-30T00:24:31;101592.19;;;17.77;47.76
18784;BME280;9520;50.954;6.968;2023-04-30T00:24:54;101616.66;;;17.91;47.54
18784;BME280;9520;50.954;6.968;2023-04-30T00:25:16;101619.28;;;17.93;47.36
18784;BME280;9520;50.954;6.968;2023-04-30T00:25:39;101578.91;;;17.76;47.10
18784;BME280;9520;50.954;6.968;2023-04-30T00:26:01;101614.06;;;17.90;47.20
18784;BME280;9520;50.954;6.968;2023-04-30T00:26:23;101617.66;;;17.87;47.11
18784;BME280;9520;50.954;6.968;2023-04-30T00:26:48;101621.16;;;17.91;47.45
18784;BME280;9520;50.954;6.968;2023-04-30T00:27:11;101618.59;;;17.86;47.35
18784;BME280;9520;50.954;6.968;2023-04-30T00:27:33;101545.84;;;17.50;47.24
18784;BME280;9520;50.954;6.968;2023-04-30T00:27:55;101617.63;;;17.89;47.33
18784;BME280;9520;50.954;6.968;2023-04-30T00:28:18;101614.19;;;17.85;47.59
18784;BME280;9520;50.954;6.968;2023-04-30T00:28:40;101614.97;;;17.89;47.55
18784;BME280;9520;50.954;6.968;2023-04-30T00:29:03;101621.03;;;17.94;47.39
18784;BME280;9520;50.954;6.968;2023-04-30T00:29:26;101619.25;;;17.94;47.38
18784;BME280;9520;50.954;6.968;2023-04-30T00:29:48;101583.44;;;17.72;47.11
18784;BME280;9520;50.954;6.968;2023-04-30T00:30:11;101558.13;;;17.56;47.22
18784;BME280;9520;50.954;6.968;2023-04-30T00:30:34;101539.81;;;17.44;47.12
18784;BME280;9520;50.954;6.968;2023-04-30T00:30:56;101589.66;;;17.73;46.98
18784;BME280;9520;50.954;6.968;2023-04-30T00:31:19;101626.41;;;17.92;47.02
18784;BME280;9520;50.954;6.968;2023-04-30T00:31:41;101622.09;;;17.88;47.05
18784;BME280;9520;50.954;6.968;2023-04-30T00:32:06;101621.25;;;17.86;47.03
18784;BME280;9520;50.954;6.968;2023-04-30T00:32:30;101623.81;;;17.91;46.82
18784;BME280;9520;50.954;6.968;2023-04-30T00:32:52;101629.97;;;17.93;46.94
18784;BME280;9520;50.954;6.968;2023-04-30T00:33:18;101625.66;;;17.89;46.73
18784;BME280;9520;50.954;6.968;2023-04-30T00:33:40;101624.72;;;17.90;47.15
18784;BME280;9520;50.954;6.968;2023-04-30T00:34:05;101634.38;;;17.94;47.28
18784;BME280;9520;50.954;6.968;2023-04-30T00:34:26;101631.81;;;17.91;47.10
18784;BME280;9520;50.954;6.968;2023-04-30T00:34:50;101628.28;;;17.90;47.33
18784;BME280;9520;50.954;6.968;2023-04-30T00:35:12;101620.44;;;17.84;47.01
18784;BME280;9520;50.954;6.968;2023-04-30T00:35:35;101618.69;;;17.83;47.03
18784;BME280;9520;50.954;6.968;2023-04-30T00:36:00;101585.56;;;17.61;46.90
18784;BME280;9520;50.954;6.968;2023-04-30T00:36:24;101629.19;;;17.89;47.04
18784;BME280;9520;50.954;6.968;2023-04-30T00:36:47;101628.28;;;17.90;47.20
18784;BME280;9520;50.954;6.968;2023-04-30T00:37:09;101624.00;;;17.85;47.09
18784;BME280;9520;50.954;6.968;2023-04-30T00:37:33;101581.16;;;17.60;47.19
18784;BME280;9520;50.954;6.968;2023-04-30T00:37:59;101596.19;;;17.62;47.00
18784;BME280;9520;50.954;6.968;2023-04-30T00:38:21;101631.09;;;17.86;47.22
18784;BME280;9520;50.954;6.968;2023-04-30T00:38:43;101630.09;;;17.88;47.02
18784;BME280;9520;50.954;6.968;2023-04-30T00:39:05;101617.78;;;17.84;47.29
18784;BME280;9520;50.954;6.968;2023-04-30T00:39:27;101631.03;;;17.87;47.39
18784;BME280;9520;50.954;6.968;2023-04-30T00:39:50;101633.69;;;17.87;47.35
18784;BME280;9520;50.954;6.968;2023-04-30T00:40:12;101632.88;;;17.85;47.21
18784;BME280;9520;50.954;6.968;2023-04-30T00:40:34;101620.63;;;17.78;47.16
18784;BME280;9520;50.954;6.968;2023-04-30T00:40:57;101633.84;;;17.81;47.42
18784;BME280;9520;50.954;6.968;2023-04-30T00:41:20;101547.53;;;17.22;47.38
18784;BME280;9520;50.954;6.968;2023-04-30T00:41:42;101627.69;;;17.81;47.25
18784;BME280;9520;50.954;6.968;2023-04-30T00:42:05;101561.38;;;17.36;47.27
18784;BME280;9520;50.954;6.968;2023-04-30T00:42:28;101624.16;;;17.79;47.13
18784;BME280;9520;50.954;6.968;2023-04-30T00:42:51;101609.59;;;17.61;47.54
18784;BME280;9520;50.954;6.968;2023-04-30T00:43:14;101573.16;;;17.27;47.54
18784;BME280;9520;50.954;6.968;2023-04-30T00:43:37;101573.88;;;17.34;47.43
18784;BME280;9520;50.954;6.968;2023-04-30T00:44:01;101594.06;;;17.43;47.26
18784;BME280;9520;50.954;6.968;2023-04-30T00:44:25;101628.91;;;17.69;47.29
18784;BME280;9520;50.954;6.968;2023-04-30T00:44:48;101567.66;;;17.34;47.31
18784;BME280;9520;50.954;6.968;2023-04-30T00:45:13;101637.75;;;17.71;47.35
18784;BME280;9520;50.954;6.968;2023-04-30T00:45:38;101623.72;;;17.64;47.85
18784;BME280;9520;50.954;6.968;2023-04-30T00:46:03;101622.81;;;17.64;48.02
18784;BME280;9520;50.954;6.968;2023-04-30T00:46:27;101560.66;;;17.30;48.08
18784;BME280;9520;50.954;6.968;2023-04-30T00:46:52;101541.56;;;17.14;47.79
18784;BME280;9520;50.954;6.968;2023-04-30T00:47:16;101619.25;;;17.65;47.50
18784;BME280;9520;50.954;6.968;2023-04-30T00:47:38;101566.91;;;17.28;47.38
18784;BME280;9520;50.954;6.968;2023-04-30T00:48:00;101535.66;;;17.03;47.69
18784;BME280;9520;50.954;6.968;2023-04-30T00:48:26;101634.38;;;17.64;47.67
18784;BME280;9520;50.954;6.968;2023-04-30T00:48:49;101626.38;;;17.64;48.00
18784;BME280;9520;50.954;6.968;2023-04-30T00:49:11;101515.19;;;17.03;47.86
18784;BME280;9520;50.954;6.968;2023-04-30T00:49:33;101633.47;;;17.65;47.86
18784;BME280;9520;50.954;6.968;2023-04-30T00:49:56;101623.78;;;17.61;47.96
18784;BME280;9520;50.954;6.968;2023-04-30T00:50:22;101601.25;;;17.41;47.71
18784;BME280;9520;50.954;6.968;2023-04-30T00:50:46;101624.63;;;17.63;47.58
18784;BME280;9520;50.954;6.968;2023-04-30T00:51:09;101547.94;;;17.08;47.96
18784;BME280;9520;50.954;6.968;2023-04-30T00:51:32;101631.84;;;17.58;47.76
18784;BME280;9520;50.954;6.968;2023-04-30T00:51:55;101620.41;;;17.55;47.85
18784;BME280;9520;50.954;6.968;2023-04-30T00:52:20;101627.41;;;17.59;48.15
18784;BME280;9520;50.954;6.968;2023-04-30T00:52:46;101637.19;;;17.58;47.97
18784;BME280;9520;50.954;6.968;2023-04-30T00:53:11;101626.69;;;17.52;48.06
18784;BME280;9520;50.954;6.968;2023-04-30T00:53:35;101508.50;;;16.89;48.15
18784;BME280;9520;50.954;6.968;2023-04-30T00:54:01;101580.25;;;17.28;48.20
18784;BME280;9520;50.954;6.968;2023-04-30T00:54:25;101640.75;;;17.59;48.20
18784;BME280;9520;50.954;6.968;2023-04-30T00:54:48;101598.63;;;17.39;47.90
18784;BME280;9520;50.954;6.968;2023-04-30T00:55:12;101600.31;;;17.42;48.02
18784;BME280;9520;50.954;6.968;2023-04-30T00:55:37;101630.06;;;17.60;47.94
18784;BME280;9520;50.954;6.968;2023-04-30T00:56:01;101608.13;;;17.48;48.30
18784;BME280;9520;50.954;6.968;2023-04-30T00:56:23;101613.41;;;17.51;47.98
18784;BME280;9520;50.954;6.968;2023-04-30T00:56:46;101636.19;;;17.62;47.99
18784;BME280;9520;50.954;6.968;2023-04-30T00:57:11;101598.50;;;17.42;48.08
18784;BME280;9520;50.954;6.968;2023-04-30T00:57:34;101579.66;;;17.17;47.96
18784;BME280;9520;50.954;6.968;2023-04-30T00:57:59;101616.53;;;17.34;48.01
18784;BME280;9520;50.954;6.968;2023-04-30T00:58:21;101588.19;;;17.32;48.07
18784;BME280;9520;50.954;6.968;2023-04-30T00:58:44;101588.22;;;17.30;48.23
18784;BME280;9520;50.954;6.968;2023-04-30T00:59:07;101645.22;;;17.57;47.80
18784;BME280;9520;50.954;6.968;2023-04-30T00:59:30;101506.06;;;16.81;48.00
18784;BME280;9520;50.954;6.968;2023-04-30T00:59:54;101645.31;;;17.54;48.10
18784;BME280;9520;50.954;6.968;2023-04-30T01:00:17;101630.22;;;17.53;47.94
18784;BME280;9520;50.954;6.968;2023-04-30T01:00:40;101636.47;;;17.52;47.88
18784;BME280;9520;50.954;6.968;2023-04-30T01:01:07;101576.22;;;17.14;47.77
18784;BME280;9520;50.954;6.968;2023-04-30T01:01:31;101532.47;;;16.90;48.01
18784;BME280;9520;50.954;6.968;2023-04-30T01:01:58;101598.00;;;17.30;47.94
18784;BME280;9520;50.954;6.968;2023-04-30T01:02:20;101611.22;;;17.33;48.03
18784;BME280;9520;50.954;6.968;2023-04-30T01:02:44;101629.53;;;17.46;47.96
18784;BME280;9520;50.954;6.968;2023-04-30T01:03:06;101642.69;;;17.52;48.01
18784;BME280;9520;50.954;6.968;2023-04-30T01:03:29;101554.41;;;17.00;47.63
18784;BME280;9520;50.954;6.968;2023-04-30T01:03:51;101600.84;;;17.23;48.15
18784;BME280;9520;50.954;6.968;2023-04-30T01:04:14;101586.00;;;17.13;47.95
18784;BME280;9520;50.954;6.968;2023-04-30T01:04:38;101642.91;;;17.45;48.17
18784;BME280;9520;50.954;6.968;2023-04-30T01:05:01;101637.72;;;17.40;48.16
18784;BME280;9520;50.954;6.968;2023-04-30T01:05:23;101632.44;;;17.37;48.06
18784;BME280;9520;50.954;6.968;2023-04-30T01:05:47;101637.56;;;17.45;47.99
18784;BME280;9520;50.954;6.968;2023-04-30T01:06:12;101635.94;;;17.39;48.28
18784;BME280;9520;50.954;6.968;2023-04-30T01:06:38;101637.78;;;17.37;48.23
18784;BME280;9520;50.954;6.968;2023-04-30T01:07:01;101638.63;;;17.39;48.26
18784;BME280;9520;50.954;6.968;2023-04-30T01:07:25;101639.53;;;17.38;47.98
18784;BME280;9520;50.954;6.968;2023-04-30T01:07:49;101591.50;;;17.07;48.43
18784;BME280;9520;50.954;6.968;2023-04-30T01:08:12;101561.88;;;16.87;48.26
18784;BME280;9520;50.954;6.968;2023-04-30T01:08:36;101631.75;;;17.31;48.05
18784;BME280;9520;50.954;6.968;2023-04-30T01:08:58;101630.00;;;17.30;48.31
18784;BME280;9520;50.954;6.968;2023-04-30T01:09:20;101643.09;;;17.37;48.22
18784;BME280;9520;50.954;6.968;2023-04-30T01:09:42;101633.41;;;17.35;48.10
18784;BME280;9520;50.954;6.968;2023-04-30T01:10:08;101627.31;;;17.31;48.08
18784;BME280;9520;50.954;6.968;2023-04-30T01:10:35;101637.88;;;17.34;48.20
18784;BME280;9520;50.954;6.968;2023-04-30T01:11:14;101626.56;;;17.26;48.24
18784;BME280;9520;50.954;6.968;2023-04-30T01:11:48;101628.38;;;17.24;48.20
18784;BME280;9520;50.954;6.968;2023-04-30T01:12:20;101604.94;;;17.03;48.26
18784;BME280;9520;50.954;6.968;2023-04-30T01:12:55;101632.09;;;17.17;48.40
18784;BME280;9520;50.954;6.968;2023-04-30T01:13:28;101597.97;;;16.99;48.26
18784;BME280;9520;50.954;6.968;2023-04-30T01:13:56;101630.31;;;17.17;48.17
18784;BME280;9520;50.954;6.968;2023-04-30T01:14:29;101607.75;;;16.98;48.42
18784;BME280;9520;50.954;6.968;2023-04-30T01:15:05;101629.44;;;17.17;48.43
18784;BME280;9520;50.954;6.968;2023-04-30T01:15:35;101646.19;;;17.22;48.37
18784;BME280;9520;50.954;6.968;2023-04-30T01:16:08;101635.72;;;17.16;48.22
18784;BME280;9520;50.954;6.968;2023-04-30T01:16:46;101643.59;;;17.20;48.26
18784;BME280;9520;50.954;6.968;2023-04-30T01:17:16;101641.81;;;17.21;48.19
18784;BME280;9520;50.954;6.968;2023-04-30T01:17:49;101639.25;;;17.16;48.07
18784;BME280;9520;50.954;6.968;2023-04-30T01:18:17;101642.84;;;17.15;47.95
18784;BME280;9520;50.954;6.968;2023-04-30T01:18:47;101637.56;;;17.12;48.19
18784;BME280;9520;50.954;6.968;2023-04-30T01:19:19;101642.00;;;17.13;47.89
18784;BME280;9520;50.954;6.968;2023-04-30T01:19:51;101649.06;;;17.14;48.04
18784;BME280;9520;50.954;6.968;2023-04-30T01:20:18;101648.22;;;17.12;48.01
18784;BME280;9520;50.954;6.968;2023-04-30T01:20:43;101639.44;;;17.09;48.16
18784;BME280;9520;50.954;6.968;2023-04-30T01:21:17;101645.69;;;17.08;48.20
18784;BME280;9520;50.954;6.968;2023-04-30T01:21:43;101585.31;;;16.73;48.07
18784;BME280;9520;50.954;6.968;2023-04-30T01:22:09;101609.00;;;16.85;47.95
18784;BME280;9520;50.954;6.968;2023-04-30T01:22:37;101651.91;;;17.08;48.09
18784;BME280;9520;50.954;6.968;2023-04-30T01:23:10;101643.00;;;17.09;47.68
18784;BME280;9520;50.954;6.968;2023-04-30T01:23:52;101563.38;;;16.63;47.82
18784;BME280;9520;50.954;6.968;2023-04-30T01:24:27;101639.47;;;17.07;47.90
18784;BME280;9520;50.954;6.968;2023-04-30T01:25:13;101623.06;;;16.90;48.04
18784;BME280;9520;50.954;6.968;2023-04-30T01:25:51;101632.56;;;17.00;47.78
18784;BME280;9520;50.954;6.968;2023-04-30T01:26:19;101647.59;;;17.03;47.78
18784;BME280;9520;50.954;6.968;2023-04-30T01:26:52;101638.78;;;17.01;48.09
18784;BME280;9520;50.954;6.968;2023-04-30T01:27:27;101642.34;;;17.01;48.00
18784;BME280;9520;50.954;6.968;2023-04-30T01:28:01;101637.06;;;16.98;47.79
18784;BME280;9520;50.954;6.968;2023-04-30T01:28:27;101526.09;;;16.28;47.76
18784;BME280;9520;50.954;6.968;2023-04-30T01:28:52;101584.69;;;16.63;47.92
18784;BME280;9520;50.954;6.968;2023-04-30T01:29:15;101532.19;;;16.33;47.95
18784;BME280;9520;50.954;6.968;2023-04-30T01:29:40;101599.44;;;16.76;48.17
18784;BME280;9520;50.954;6.968;2023-04-30T01:30:04;101645.03;;;17.00;47.99
18784;BME280;9520;50.954;6.968;2023-04-30T01:30:30;101592.53;;;16.68;47.83
18784;BME280;9520;50.954;6.968;2023-04-30T01:30:52;101640.56;;;17.00;47.65
18784;BME280;9520;50.954;6.968;2023-04-30T01:31:18;101647.81;;;16.95;47.72
18784;BME280;9520;50.954;6.968;2023-04-30T01:31:42;101547.03;;;16.41;47.76
18784;BME280;9520;50.954;6.968;2023-04-30T01:32:06;101639.59;;;17.03;47.78
18784;BME280;9520;50.954;6.968;2023-04-30T01:32:28;101643.03;;;17.08;47.53
18784;BME280;9520;50.954;6.968;2023-04-30T01:32:51;101639.47;;;17.07;47.53
18784;BME280;9520;50.954;6.968;2023-04-30T01:33:14;101636.88;;;17.06;47.53
18784;BME280;9520;50.954;6.968;2023-04-30T01:33:40;101634.34;;;17.01;47.65
18784;BME280;9520;50.954;6.968;2023-04-30T01:34:03;101603.66;;;16.85;47.51
18784;BME280;9520;50.954;6.968;2023-04-30T01:34:25;101613.47;;;16.83;47.54
18784;BME280;9520;50.954;6.968;2023-04-30T01:34:47;101544.22;;;16.48;47.53
18784;BME280;9520;50.954;6.968;2023-04-30T01:35:09;101637.66;;;17.09;47.66
18784;BME280;9520;50.954;6.968;2023-04-30T01:36:05;101633.34;;;17.05;47.60
18784;BME280;9520;50.954;6.968;2023-04-30T01:36:47;101631.47;;;17.07;47.58
18784;BME280;9520;50.954;6.968;2023-04-30T01:37:18;101634.16;;;17.07;47.71
18784;BME280;9520;50.954;6.968;2023-04-30T01:37:51;;;;17.05;
18784;BME280;9520;50.954;6.968;2023-04-30T01:38:32;101630.03;;;16.96;47.38
18784;BME280;9520;50.954;6.968;2023-04-30T01:39:10;101542.19;;;16.59;47.14
18784;BME280;9520;50.954;6.968;2023-04-30T01:39:47;101639.47;;;17.07;47.32
18784;BME280;9520;50.954;6.968;2023-04-30T01:40:23;101595.75;;;16.82;47.43
18784;BME280;9520;50.954;6.968;2023-04-30T01:40:57;101572.34;;;16.59;47.44
18784;BME280;9520;50.954;6.968;2023-04-30T01:41:29;101633.41;;;17.02;47.63
18784;BME280;9520;50.954;6.968;2023-04-30T01:41:58;101635.22;;;17.02;47.45
18784;BME280;9520;50.954;6.968;2023-04-30T01:42:31;101631.56;;;17.04;47.62
18784;BME280;9520;50.954;6.968;2023-04-30T01:43:07;101627.16;;;17.03;47.20
18784;BME280;9520;50.954;6.968;2023-04-30T01:43:38;101635.09;;;17.06;46.77
18784;BME280;9520;50.954;6.968;2023-04-30T01:44:21;101528.56;;;16.35;46.85
18784;BME280;9520;50.954;6.968;2023-04-30T01:45:06;101596.03;;;16.71;47.11
18784;BME280;9520;50.954;6.968;2023-04-30T01:45:47;101538.44;;;16.30;47.18
18784;BME280;9520;50.954;6.968;2023-04-30T01:46:19;101603.81;;;16.79;47.23
18784;BME280;9520;50.954;6.968;2023-04-30T01:46:50;101621.19;;;16.94;47.17
18784;BME280;9520;50.954;6.968;2023-04-30T01:47:23;101628.28;;;16.95;47.15
18784;BME280;9520;50.954;6.968;2023-04-30T01:47:52;101518.97;;;16.28;47.34
18784;BME280;9520;50.954;6.968;2023-04-30T01:48:23;101585.44;;;16.68;47.00
18784;BME280;9520;50.954;6.968;2023-04-30T01:48:53;101581.88;;;16.68;46.90
18784;BME280;9520;50.954;6.968;2023-04-30T01:49:26;101629.31;;;16.89;47.12
18784;BME280;9520;50.954;6.968;2023-04-30T01:49:58;101584.56;;;16.68;47.15
18784;BME280;9520;50.954;6.968;2023-04-30T01:50:26;101532.88;;;16.39;47.05
18784;BME280;9520;50.954;6.968;2023-04-30T01:50:54;101588.19;;;16.65;46.97
18784;BME280;9520;50.954;6.968;2023-04-30T01:51:27;101588.16;;;16.67;46.98
18784;BME280;9520;50.954;6.968;2023-04-30T01:51:59;101510.19;;;16.25;47.10
18784;BME280;9520;50.954;6.968;2023-04-30T01:52:31;101625.81;;;16.87;47.57
18784;BME280;9520;50.954;6.968;2023-04-30T01:52:58;101590.72;;;16.70;47.33
18784;BME280;9520;50.954;6.968;2023-04-30T01:53:28;101520.69;;;16.31;47.36
18784;BME280;9520;50.954;6.968;2023-04-30T01:53:57;101579.47;;;16.59;47.36
18784;BME280;9520;50.954;6.968;2023-04-30T01:54:26;101548.75;;;16.44;47.14
18784;BME280;9520;50.954;6.968;2023-04-30T01:54:56;101519.78;;;16.32;47.24
18784;BME280;9520;50.954;6.968;2023-04-30T01:55:24;101645.03;;;17.00;46.83
18784;BME280;9520;50.954;6.968;2023-04-30T01:55:54;101534.72;;;16.37;46.57
18784;BME280;9520;50.954;6.968;2023-04-30T01:56:22;101631.59;;;17.03;46.53
18784;BME280;9520;50.954;6.968;2023-04-30T01:56:52;101638.63;;;17.07;46.47
18784;BME280;9520;50.954;6.968;2023-04-30T01:57:22;101562.56;;;16.61;46.86
18784;BME280;9520;50.954;6.968;2023-04-30T01:57:56;101621.97;;;16.97;46.54
18784;BME280;9520;50.954;6.968;2023-04-30T01:58:22;101587.78;;;16.80;46.66
18784;BME280;9520;50.954;6.968;2023-04-30T01:58:46;101593.91;;;16.84;46.40
18784;BME280;9520;50.954;6.968;2023-04-30T01:59:12;101638.56;;;17.08;46.83
18784;BME280;9520;50.954;6.968;2023-04-30T01:59:37;101543.97;;;16.58;47.01
18784;BME280;9520;50.954;6.968;2023-04-30T01:59:59;101635.88;;;17.10;47.04
18784;BME280;9520;50.954;6.968;2023-04-30T02:00:33;101566.91;;;16.64;46.46
18784;BME280;9520;50.954;6.968;2023-04-30T02:00:56;101569.56;;;16.64;46.55
18784;BME280;9520;50.954;6.968;2023-04-30T02:01:28;101637.75;;;17.06;46.83
18784;BME280;9520;50.954;6.968;2023-04-30T02:01:51;101637.75;;;17.06;46.66
18784;BME280;9520;50.954;6.968;2023-04-30T02:02:14;101629.78;;;17.05;46.71
18784;BME280;9520;50.954;6.968;2023-04-30T02:02:36;101637.66;;;17.09;46.49
18784;BME280;9520;50.954;6.968;2023-04-30T02:02:59;101633.31;;;17.07;46.57
18784;BME280;9520;50.954;6.968;2023-04-30T02:03:23;101638.78;;;17.01;46.57
18784;BME280;9520;50.954;6.968;2023-04-30T02:03:45;101566.00;;;16.65;46.52
18784;BME280;9520;50.954;6.968;2023-04-30T02:04:09;101632.34;;;17.08;46.45
18784;BME280;9520;50.954;6.968;2023-04-30T02:04:32;101635.09;;;17.06;46.34
18784;BME280;9520;50.954;6.968;2023-04-30T02:04:54;101642.16;;;17.07;46.37
18784;BME280;9520;50.954;6.968;2023-04-30T02:05:17;101594.78;;;16.84;46.38
18784;BME280;9520;50.954;6.968;2023-04-30T02:05:42;101640.34;;;17.08;46.07
18784;BME280;9520;50.954;6.968;2023-04-30T02:06:04;101648.31;;;17.09;46.32
18784;BME280;9520;50.954;6.968;2023-04-30T02:06:27;101554.63;;;16.58;46.77
18784;BME280;9520;50.954;6.968;2023-04-30T02:06:50;101529.19;;;16.45;46.20
18784;BME280;9520;50.954;6.968;2023-04-30T02:07:25;101639.44;;;17.09;46.01
18784;BME280;9520;50.954;6.968;2023-04-30T02:07:50;101598.34;;;16.83;46.49
18784;BME280;9520;50.954;6.968;2023-04-30T02:08:13;101639.47;;;17.07;46.44
18784;BME280;9520;50.954;6.968;2023-04-30T02:08:36;101545.91;;;16.52;46.64
18784;BME280;9520;50.954;6.968;2023-04-30T02:08:59;101626.50;;;16.95;46.35
18784;BME280;9520;50.954;6.968;2023-04-30T02:09:25;101638.69;;;17.04;46.34
18784;BME280;9520;50.954;6.968;2023-04-30T02:09:48;101644.06;;;17.02;46.30
18784;BME280;9520;50.954;6.968;2023-04-30T02:10:12;101640.53;;;17.02;46.21
18784;BME280;9520;50.954;6.968;2023-04-30T02:10:40;101641.44;;;17.01;46.56
18784;BME280;9520;50.954;6.968;2023-04-30T02:11:04;101641.47;;;16.99;46.49
18784;BME280;9520;50.954;6.968;2023-04-30T02:11:27;101646.03;;;16.96;46.64
18784;BME280;9520;50.954;6.968;2023-04-30T02:11:50;101580.41;;;16.56;46.64
18784;BME280;9520;50.954;6.968;2023-04-30T02:12:14;101641.72;;;16.90;46.80
18784;BME280;9520;50.954;6.968;2023-04-30T02:12:37;101520.97;;;16.19;46.65
18784;BME280;9520;50.954;6.968;2023-04-30T02:12:59;101524.63;;;16.15;46.79
18784;BME280;9520;50.954;6.968;2023-04-30T02:13:32;101642.72;;;16.86;46.99
18784;BME280;9520;50.954;6.968;2023-04-30T02:14:03;101604.06;;;16.70;46.89
18784;BME280;9520;50.954;6.968;2023-04-30T02:14:25;101638.31;;;16.85;46.89
18784;BME280;9520;50.954;6.968;2023-04-30T02:14:48;101598.00;;;16.63;46.68
18784;BME280;9520;50.954;6.968;2023-04-30T02:15:11;101554.41;;;16.30;46.76
18784;BME280;9520;50.954;6.968;2023-04-30T02:15:35;101556.84;;;16.39;46.71
18784;BME280;9520;50.954;6.968;2023-04-30T02:15:57;101640.88;;;16.88;46.85
18784;BME280;9520;50.954;6.968;2023-04-30T02:16:19;101569.88;;;16.52;46.83
18784;BME280;9520;50.954;6.968;2023-04-30T02:16:42;101648.00;;;16.88;46.41
18784;BME280;9520;50.954;6.968;2023-04-30T02:17:05;101537.53;;;16.31;46.67